Currently 52°F in Simi Valley, California, USA
52°F
54°F / 48°F
15 mph W
1.24"
Friday, January 20, 2017 4:04 PM PST

Simi Valley, California Weather Summary
Last 36 Hours

Temperature Winds Hourly Humidity Dewpoint
Time Report Norm Report Norm Max Gusts Precip. Rpt. Norm Rpt. Norm Pressure
1Fri 04:04 PM  52.5°F  66°F  15 mph W  5 mph  22 mph  0.00"  82%  41%  47°F  41°F  29.43"
Fri 04:00 PM  52.3°F  67°F  11 mph W  5 mph  30 mph  0.00"  82%  41%  47°F  41°F  29.43"
2Fri 03:12 PM  54.4°F  68°F  21 mph W  6 mph  35 mph  ----  78%  39%  47°F  41°F  29.41"
Fri 03:00 PM  54.1°F  68°F  13 mph W  6 mph  32 mph  0.01"  81%  39%  48°F  41°F  29.41"
Fri 02:00 PM  52.4°F  68°F  8 mph SW  6 mph  29 mph  0.03"  95%  38%  51°F  41°F  29.41"
Fri 01:00 PM  52.8°F  68°F  11 mph W  6 mph  23 mph  0.06"  96%  39%  52°F  41°F  29.44"
Fri 12:00 PM  51.5°F  67°F  13 mph SW  6 mph  27 mph  0.41"  96%  41%  50°F  41°F  29.48"
Fri 11:00 AM  51.0°F  65°F  10 mph S  6 mph  32 mph  0.24"  95%  44%  49°F  41°F  29.53"
Fri 10:00 AM  49.5°F  62°F  15 mph S  5 mph  21 mph  0.11"  95%  47%  48°F  41°F  29.57"
Fri 09:00 AM  48.9°F  58°F  8 mph S  4 mph  14 mph  0.07"  95%  51%  47°F  40°F  29.64"
Fri 08:00 AM  48.4°F  55°F  7 mph S  4 mph  16 mph  0.04"  95%  54%  47°F  37°F  29.66"
Fri 07:00 AM  48.2°F  54°F  6 mph S  4 mph  8 mph  0.12"  94%  53%  47°F  37°F  29.72"
3Fri 06:01 AM  47.7°F  54°F  3 mph E  4 mph  6 mph  ----  94%  53%  46°F  37°F  29.73"
Fri 06:00 AM  47.8°F  54°F  3 mph E  4 mph  9 mph  0.05"  94%  53%  46°F  37°F  29.73"
Fri 05:00 AM  48.8°F  54°F  2 mph SW  4 mph  7 mph  0.01"  94%  53%  47°F  36°F  29.77"
Fri 04:00 AM  49.2°F  54°F  calm  4 mph  5 mph  0.02"  94%  53%  47°F  36°F  29.79"
Fri 03:00 AM  49.8°F  54°F  calm  4 mph  4 mph  0.05"  94%  53%  48°F  37°F  29.78"
Fri 02:00 AM  50.0°F  54°F  calm  4 mph  7 mph  0.02"  94%  53%  48°F  37°F  29.83"
Fri 01:00 AM  49.8°F  55°F  4 mph SW  3 mph  9 mph  0.00"  94%  53%  48°F  37°F  29.85"
Fri 12:00 AM  49.8°F  55°F  4 mph SW  4 mph  8 mph  0.01"  94%  53%  48°F  38°F  29.86"
Thu 11:00 PM  50.1°F  56°F  6 mph SW  4 mph  16 mph  0.04"  94%  52%  48°F  38°F  29.85"
Thu 10:00 PM  51.3°F  56°F  7 mph SW  4 mph  15 mph  0.00"  93%  52%  49°F  38°F  29.89"
Thu 09:00 PM  51.9°F  57°F  7 mph W  4 mph  15 mph  0.00"  91%  51%  49°F  38°F  29.88"
Thu 08:00 PM  52.1°F  58°F  9 mph SW  3 mph  17 mph  0.01"  90%  51%  49°F  39°F  29.88"
Thu 07:00 PM  52.8°F  59°F  7 mph SW  3 mph  13 mph  0.00"  85%  50%  48°F  40°F  29.88"
Thu 06:00 PM  53.5°F  61°F  8 mph SW  3 mph  17 mph  0.00"  84%  48%  48°F  40°F  29.89"
Thu 05:00 PM  54.3°F  64°F  11 mph W  4 mph  20 mph  0.00"  82%  43%  49°F  40°F  29.88"
Thu 04:00 PM  55.9°F  66°F  9 mph W  5 mph  21 mph  0.00"  78%  40%  49°F  40°F  29.86"
Thu 03:00 PM  56.9°F  68°F  11 mph W  6 mph  20 mph  0.00"  75%  37%  49°F  39°F  29.87"
Thu 02:00 PM  56.7°F  68°F  8 mph W  6 mph  23 mph  0.00"  72%  37%  47°F  39°F  29.87"
Thu 01:00 PM  57.1°F  67°F  13 mph W  6 mph  22 mph  0.00"  69%  37%  47°F  39°F  29.89"
Thu 12:00 PM  56.3°F  66°F  9 mph SW  6 mph  18 mph  0.00"  81%  39%  50°F  40°F  29.92"
Thu 11:00 AM  54.5°F  64°F  8 mph W  6 mph  17 mph  0.00"  84%  42%  49°F  40°F  29.94"
Thu 10:00 AM  52.7°F  62°F  4 mph W  5 mph  14 mph  0.00"  92%  46%  50°F  40°F  29.96"
Thu 09:00 AM  52.3°F  58°F  4 mph W  5 mph  10 mph  0.00"  95%  50%  51°F  38°F  29.94"
Thu 08:00 AM  51.6°F  54°F  3 mph W  5 mph  11 mph  0.00"  95%  53%  50°F  36°F  29.92"
Thu 07:00 AM  50.8°F  53°F  calm  4 mph  12 mph  0.00"  93%  53%  49°F  35°F  29.91"
Thu 06:00 AM  50.0°F  53°F  9 mph SE  4 mph  14 mph  0.02"  93%  52%  48°F  36°F  29.90"
Thu 05:00 AM  50.2°F  53°F  6 mph SE  4 mph  11 mph  0.04"  92%  52%  48°F  35°F  29.90"

  1. Current weather data. No green row appears if the current weather data is also the high or low for the current day.
  2. High temperature for the current day.
  3. Low temperature for the current day.

The Simi Valley, California weather pages are a service of WeatherCurrents.
Copyright ©Fri Jan 20 16:05:03 PST 2017  WeatherCurrents. All rights reserved. - Submit questions and comments - Privacy Policy

This page automatically refreshes every 10 minutes.